CFB Gagetown, New Brunswick

Past 24 Hour Conditions

This table is a summary of hourly weather conditions for the past 24 hours. This summary includes the following parameters: temperature, humidity, dew point, wind speed and direction, air pressure, visibility and/or wind chill and humidex.
Date / Time
(ADT)
Conditions Temp (°F) Humidity (%) Dew Point (°F) Wind (mph) Pressure (inches) Vis (mi) Humidex
31 July 2014
14:00 Partly Cloudy 75 58 59 SSW 7 30.1 15 83
13:00 Mainly Sunny 70 70 60 WSW 6 30.1 15 78
12:00 Cloudy 67 78 60 WSW 5 30.1 15 *
11:00 Cloudy 63 85 59 SSW 6 30.1 15 *
10:00 Light Drizzle 60 91 58 SW 5 30.1 12 *
9:00 Fog 59   94 57 WSW 10 30.1 3 *
8:00 Fog 59   94 57 WSW 8 30.1 2 *
7:00 Partly Cloudy 59   93 57 SSW 5 30.1 15 *
6:00 Partly Cloudy 60 93 58 SW 3 30.1 15 *
5:00 Mostly Cloudy 62 90 59 SW 5 30.0 15 *
4:00 Cloudy 62 90 59 calm 30.0 15 *
3:00 Cloudy 64 85 59 W 3 30.0 15 *
2:00 Cloudy 62 90 59 calm 30.0 15 *
1:00 Cloudy 61 91 59 calm 30.0 15 *
00:00 Mostly Cloudy 60 93 57 calm 30.0 15 *
30 July 2014
23:00 Mostly Cloudy 62 89 58 calm 30.0 15 *
22:00 Mostly Cloudy 62 85 58 calm 30.0 15 *
21:00 Cloudy 64 80 58 SSE 3 30.0 15 *
20:00 Cloudy 67 72 57 SE 6 30.0 15 *
19:00 Cloudy 69 69 58 SSE 9 30.0 15 *
18:00 Light Rainshower 71 70 61 SE 8 30.0 15 79
17:00 Cloudy 73 69 63 ESE 6 30.0 15 83
16:00 Cloudy 75 62 61 E 7 30.0 15 83
15:00 Mostly Cloudy 75 64 62 ESE 7 30.0 15 83
14:00 Cloudy 77   66 62 NE 2 30.0 15 86
N/A
Not available
 ↑ 
Highest temperature
 ↓ 
Lowest temperature
*
Value not significant.

If you require additional historical weather information, please visit Climate Data Online.